createdAt,value
2019-02-08T00:01:44.334Z,95687.31
2019-02-08T00:12:19.710Z,95695.94
2019-02-08T00:17:42.334Z,95684.94
2019-02-08T00:20:12.836Z,95688.47
2019-02-08T00:25:22.397Z,95694.47
2019-02-08T00:33:40.730Z,95693.91
2019-02-08T00:36:20.598Z,95704.38
2019-02-08T00:39:02.631Z,95699.98
2019-02-08T00:42:04.304Z,95704.31
2019-02-08T00:44:44.875Z,95708.55
2019-02-08T00:47:28.925Z,95701.28
2019-02-08T00:50:22.344Z,95712.48
2019-02-08T00:53:15.565Z,95715.85
2019-02-08T00:58:34.509Z,95719.34
2019-02-08T01:01:13.648Z,95722.06
2019-02-08T01:06:34.416Z,95722.78
2019-02-08T01:09:05.815Z,95726.66
2019-02-08T01:14:16.571Z,95727.62
2019-02-08T01:16:48.984Z,95721.84
2019-02-08T01:19:18.481Z,95724.26
2019-02-08T01:21:50.489Z,95727.48
2019-02-08T01:24:20.429Z,95731.70
2019-02-08T01:27:05.854Z,95730.83
2019-02-08T01:29:34.896Z,95732.16
2019-02-08T01:32:10.084Z,95731.20
2019-02-08T01:34:47.598Z,95729.38
2019-02-08T01:37:16.665Z,95731.02
2019-02-08T01:39:56.730Z,95730.87
2019-02-08T01:42:35.029Z,95732.51
2019-02-08T01:45:04.103Z,95733.41
2019-02-08T01:50:08.857Z,95738.03
2019-02-08T01:52:38.325Z,95733.99
2019-02-08T01:55:08.439Z,95735.85
2019-02-08T01:57:37.861Z,95741.55
2019-02-08T02:00:16.397Z,95743.77
2019-02-08T02:02:45.584Z,95741.06
2019-02-08T02:05:19.083Z,95746.59
2019-02-08T02:07:48.157Z,95743.20
2019-02-08T02:10:28.915Z,95740.93
2019-02-08T02:12:57.955Z,95743.14
2019-02-08T02:15:27.025Z,95740.33
2019-02-08T02:17:58.510Z,95743.68
2019-02-08T02:20:30.279Z,95744.28
2019-02-08T02:22:59.340Z,95742.49
2019-02-08T02:25:31.061Z,95744.05
2019-02-08T02:28:15.597Z,95744.16
2019-02-08T02:30:44.980Z,95745.61
2019-02-08T02:35:59.348Z,95756.63
2019-02-08T02:38:32.776Z,95753.78
2019-02-08T02:41:01.861Z,95753.33
2019-02-08T02:43:36.684Z,95750.11
2019-02-08T02:46:05.735Z,95751.42
2019-02-08T02:51:11.822Z,95755.71
2019-02-08T02:53:50.646Z,95754.72
2019-02-08T02:56:19.687Z,95752.58
2019-02-08T02:58:52.228Z,95752.70
2019-02-08T03:01:34.219Z,95754.11
2019-02-08T03:04:03.715Z,95760.39
2019-02-08T03:06:41.048Z,95756.81
2019-02-08T03:09:10.148Z,95756.94
2019-02-08T03:14:12.917Z,95764.63
2019-02-08T03:16:41.842Z,95772.05
2019-02-08T03:19:41.019Z,95765.06
2019-02-08T03:22:15.444Z,95764.16
2019-02-08T03:24:43.910Z,95764.77
2019-02-08T03:27:20.606Z,95764.54
2019-02-08T03:29:49.581Z,95758.81
2019-02-08T03:32:20.051Z,95758.22
2019-02-08T03:34:48.576Z,95768.66
2019-02-08T03:37:40.367Z,95763.48
2019-02-08T03:40:30.165Z,95763.28
2019-02-08T03:42:59.103Z,95762.45
2019-02-08T03:45:45.986Z,95767.20
2019-02-08T03:48:14.710Z,95772.88
2019-02-08T03:51:00.382Z,95766.83
2019-02-08T03:53:38.274Z,95773.38
2019-02-08T03:56:07.090Z,95769.45
2019-02-08T03:58:35.669Z,95769.90
2019-02-08T04:01:05.170Z,95769.17
2019-02-08T04:03:33.709Z,95767.16
2019-02-08T04:06:06.562Z,95772.18
2019-02-08T04:08:35.684Z,95767.69
2019-02-08T04:11:05.530Z,95774.38
2019-02-08T04:13:35.048Z,95770.91
2019-02-08T04:16:10.038Z,95770.90
2019-02-08T04:18:38.668Z,95771.11
2019-02-08T04:21:07.244Z,95772.67
2019-02-08T04:23:35.753Z,95776.32
2019-02-08T04:26:08.129Z,95771.02
2019-02-08T04:28:37.241Z,95767.88
2019-02-08T04:31:05.987Z,95762.62
2019-02-08T04:33:35.417Z,95764.73
2019-02-08T04:36:06.114Z,95762.22
2019-02-08T04:38:34.854Z,95760.34
2019-02-08T04:41:12.985Z,95757.06
2019-02-08T04:43:41.544Z,95752.76
2019-02-08T04:46:26.991Z,95753.13
2019-02-08T04:49:26.846Z,95756.47
2019-02-08T04:52:05.453Z,95749.27
2019-02-08T04:54:38.452Z,95753.98
2019-02-08T04:57:26.091Z,95755.34
2019-02-08T05:00:26.136Z,95751.38
2019-02-08T05:03:22.901Z,95750.74
2019-02-08T05:05:53.347Z,95762.66
2019-02-08T05:08:26.885Z,95763.30
2019-02-08T05:10:55.404Z,95764.57
2019-02-08T05:13:27.851Z,95762.63
2019-02-08T05:16:06.661Z,95771.17
2019-02-08T05:18:35.181Z,95774.15
2019-02-08T05:21:26.597Z,95776.05
2019-02-08T05:24:22.226Z,95773.05
2019-02-08T05:27:03.158Z,95769.07
2019-02-08T05:29:31.678Z,95768.89
2019-02-08T05:32:04.951Z,95774.91
2019-02-08T05:34:33.465Z,95777.16
2019-02-08T05:37:02.955Z,95771.84
2019-02-08T05:39:32.771Z,95768.52
2019-02-08T05:42:13.038Z,95765.38
2019-02-08T05:44:41.542Z,95762.08
2019-02-08T05:47:27.278Z,95760.55
2019-02-08T05:50:03.257Z,95763.91
2019-02-08T05:52:32.145Z,95765.54
2019-02-08T05:55:05.315Z,95765.75
2019-02-08T05:57:34.021Z,95762.80
2019-02-08T06:00:12.464Z,95765.06
2019-02-08T06:02:41.000Z,95770.08
2019-02-08T06:05:27.199Z,95770.95
2019-02-08T06:08:29.088Z,95766.80
2019-02-08T06:11:01.357Z,95764.59
2019-02-08T06:13:38.919Z,95756.50
2019-02-08T06:16:15.829Z,95762.41
2019-02-08T06:18:44.710Z,95762.26
2019-02-08T06:21:20.384Z,95769.56
2019-02-08T06:23:48.931Z,95770.31
2019-02-08T06:26:26.766Z,95769.17
2019-02-08T06:29:04.646Z,95775.23
2019-02-08T06:31:33.547Z,95779.73
2019-02-08T06:34:12.062Z,95778.97
2019-02-08T06:36:40.595Z,95782.38
2019-02-08T06:39:24.062Z,95775.50
2019-02-08T06:41:52.754Z,95777.08
2019-02-08T06:44:26.749Z,95777.63
2019-02-08T06:46:56.278Z,95772.32
2019-02-08T06:49:25.826Z,95766.59
2019-02-08T06:51:55.829Z,95769.05
2019-02-08T06:54:24.384Z,95767.20
2019-02-08T06:56:53.610Z,95766.72
2019-02-08T06:59:23.896Z,95762.26
2019-02-08T07:01:55.817Z,95764.80
2019-02-08T07:04:26.216Z,95762.86
2019-02-08T07:06:58.169Z,95765.88
2019-02-08T07:09:27.713Z,95759.12
2019-02-08T07:12:10.607Z,95767.66
2019-02-08T07:14:42.580Z,95767.51
2019-02-08T07:17:13.407Z,95777.58
2019-02-08T07:19:52.804Z,95771.27
2019-02-08T07:22:29.766Z,95769.71
2019-02-08T07:25:04.513Z,95770.87
2019-02-08T07:27:41.210Z,95772.95
2019-02-08T07:30:10.846Z,95777.97
2019-02-08T07:38:32.538Z,95782.73
2019-02-08T07:41:04.946Z,95781.73
2019-02-08T07:43:46.927Z,95785.16
2019-02-08T07:49:13.833Z,95795.97
2019-02-08T07:51:55.529Z,95795.74
2019-02-08T07:54:27.144Z,95795.78
2019-02-08T07:56:58.525Z,95799.99
2019-02-08T07:59:37.914Z,95798.20
2019-02-08T08:02:06.800Z,95793.09
2019-02-08T08:04:47.168Z,95794.30
2019-02-08T08:10:14.710Z,95790.56
2019-02-08T08:12:52.420Z,95780.92
2019-02-08T08:15:24.295Z,95776.94
2019-02-08T08:18:02.725Z,95781.77
2019-02-08T08:20:36.098Z,95779.34
2019-02-08T08:23:08.121Z,95782.08
2019-02-08T08:25:53.557Z,95786.58
2019-02-08T08:28:33.978Z,95780.34
2019-02-08T08:31:13.957Z,95780.88
2019-02-08T08:33:43.199Z,95781.41
2019-02-08T08:42:45.122Z,95776.02
2019-02-08T08:45:30.249Z,95766.64
2019-02-08T08:48:15.717Z,95774.86
2019-02-08T08:54:08.283Z,95773.88
2019-02-08T08:56:46.704Z,95775.45
2019-02-08T08:59:27.102Z,95767.45
2019-02-08T09:05:16.883Z,95765.23
2019-02-08T09:07:57.791Z,95768.20
2019-02-08T09:17:07.898Z,95749.70
2019-02-08T09:22:41.288Z,95747.66
2019-02-08T09:25:18.691Z,95740.27
2019-02-08T09:28:06.412Z,95746.51
2019-02-08T09:30:56.554Z,95745.58
2019-02-08T09:42:49.167Z,95742.69
2019-02-08T09:45:35.383Z,95733.30
2019-02-08T09:48:14.074Z,95734.51
2019-02-08T09:53:53.126Z,95745.61
2019-02-08T10:08:31.273Z,95738.50
2019-02-08T10:11:10.577Z,95744.20
2019-02-08T10:17:12.948Z,95740.41
2019-02-08T10:26:12.668Z,95726.25
2019-02-08T10:31:57.009Z,95711.65
2019-02-08T10:37:36.194Z,95705.20
2019-02-08T10:40:07.805Z,95709.33
2019-02-08T10:45:53.032Z,95699.96
2019-02-08T10:48:38.635Z,95699.68
2019-02-08T10:51:28.052Z,95704.27
2019-02-08T10:54:07.401Z,95703.40
2019-02-08T10:56:48.459Z,95706.40
2019-02-08T11:02:42.905Z,95708.77
2019-02-08T11:08:27.922Z,95690.64
2019-02-08T11:17:08.277Z,95679.89
2019-02-08T11:19:36.245Z,95679.19
2019-02-08T11:22:04.782Z,95684.09
2019-02-08T11:24:33.651Z,95676.84
2019-02-08T11:27:05.653Z,95665.43
2019-02-08T11:29:35.106Z,95660.08
2019-02-08T11:32:07.301Z,95660.19
2019-02-08T11:34:35.847Z,95655.17
2019-02-08T11:37:04.366Z,95657.02
2019-02-08T11:39:32.952Z,95657.91
2019-02-08T11:42:01.562Z,95655.84
2019-02-08T11:44:31.208Z,95656.37
2019-02-08T11:47:00.771Z,95660.85
2019-02-08T11:49:29.300Z,95660.64
2019-02-08T11:51:57.818Z,95650.84
2019-02-08T11:54:26.351Z,95649.96
2019-02-08T11:56:55.661Z,95646.11
2019-02-08T11:59:25.193Z,95640.36
2019-02-08T12:01:53.717Z,95629.33
2019-02-08T12:04:23.926Z,95637.73
2019-02-08T12:06:55.507Z,95619.00
2019-02-08T12:09:25.393Z,95626.89
2019-02-08T12:11:53.886Z,95616.48
2019-02-08T12:14:22.430Z,95616.20
2019-02-08T12:16:59.284Z,95615.62
2019-02-08T12:19:27.828Z,95616.24
2019-02-08T12:21:56.450Z,95611.22
2019-02-08T12:24:26.848Z,95612.44
2019-02-08T12:26:55.365Z,95609.84
2019-02-08T12:29:23.928Z,95600.48
2019-02-08T12:31:52.454Z,95598.33
2019-02-08T12:34:22.927Z,95602.47
2019-02-08T12:36:53.583Z,95588.05
2019-02-08T12:39:22.123Z,95592.38
2019-02-08T12:41:51.666Z,95587.23
2019-02-08T12:44:20.201Z,95578.28
2019-02-08T12:46:49.658Z,95574.05
2019-02-08T12:49:18.630Z,95567.66
2019-02-08T12:51:57.366Z,95568.95
2019-02-08T12:54:25.935Z,95566.52
2019-02-08T12:56:54.750Z,95563.81
2019-02-08T12:59:23.277Z,95562.77
2019-02-08T13:01:51.829Z,95552.65
2019-02-08T13:04:22.357Z,95544.22
2019-02-08T13:06:50.878Z,95534.95
2019-02-08T13:09:19.908Z,95537.23
2019-02-08T13:11:48.442Z,95544.16
2019-02-08T13:14:16.961Z,95539.92
2019-02-08T13:16:45.495Z,95530.03
2019-02-08T13:19:14.453Z,95528.07
2019-02-08T13:21:43.775Z,95524.91
2019-02-08T13:24:16.026Z,95520.61
2019-02-08T13:26:44.553Z,95522.83
2019-02-08T13:29:13.588Z,95517.86
2019-02-08T13:31:42.151Z,95517.39
2019-02-08T13:34:10.660Z,95510.47
2019-02-08T13:36:46.259Z,95504.22
2019-02-08T13:39:22.283Z,95499.61
2019-02-08T13:42:00.013Z,95498.69
2019-02-08T13:44:34.744Z,95503.27
2019-02-08T13:47:05.718Z,95497.95
2019-02-08T13:49:35.331Z,95484.80
2019-02-08T13:52:04.604Z,95483.03
2019-02-08T13:54:34.932Z,95484.66
2019-02-08T13:57:06.123Z,95483.09
2019-02-08T13:59:35.315Z,95484.85
2019-02-08T14:02:08.591Z,95485.98
2019-02-08T14:04:45.630Z,95480.41
2019-02-08T14:07:22.238Z,95479.77
2019-02-08T14:09:51.933Z,95476.81
2019-02-08T14:12:21.958Z,95474.73
2019-02-08T14:15:01.094Z,95472.48
2019-02-08T14:17:31.585Z,95466.44
2019-02-08T14:20:02.296Z,95458.99
2019-02-08T14:22:30.809Z,95457.95
2019-02-08T14:25:00.589Z,95451.14
2019-02-08T14:27:30.069Z,95448.28
2019-02-08T14:29:59.625Z,95445.20
2019-02-08T14:32:29.048Z,95440.45
2019-02-08T14:34:59.630Z,95441.13
2019-02-08T14:37:28.194Z,95439.19
2019-02-08T14:39:57.175Z,95434.21
2019-02-08T14:42:26.318Z,95430.55
2019-02-08T14:44:54.995Z,95424.30
2019-02-08T14:47:30.911Z,95421.55
2019-02-08T14:50:11.263Z,95417.52
2019-02-08T14:52:40.279Z,95413.81
2019-02-08T14:55:21.899Z,95405.56
2019-02-08T14:57:54.792Z,95405.52
2019-02-08T15:00:33.511Z,95406.55
2019-02-08T15:03:05.017Z,95397.58
2019-02-08T15:05:35.165Z,95391.92
2019-02-08T15:08:07.975Z,95391.94
2019-02-08T15:10:38.651Z,95388.31
2019-02-08T15:13:07.958Z,95385.30
2019-02-08T15:15:36.522Z,95379.84
2019-02-08T15:18:05.094Z,95384.94
2019-02-08T15:20:34.702Z,95384.13
2019-02-08T15:23:13.237Z,95382.16
2019-02-08T15:25:43.548Z,95388.41
2019-02-08T15:28:19.844Z,95387.53
2019-02-08T15:30:56.902Z,95389.53
2019-02-08T15:33:41.118Z,95387.35
2019-02-08T15:36:09.655Z,95382.90
2019-02-08T15:38:44.661Z,95384.13
2019-02-08T15:41:13.333Z,95383.66
2019-02-08T15:43:42.002Z,95378.70
2019-02-08T15:46:10.532Z,95375.69
2019-02-08T15:48:42.798Z,95373.94
2019-02-08T15:51:12.034Z,95368.64
2019-02-08T15:53:42.523Z,95363.67
2019-02-08T15:56:11.130Z,95361.02
2019-02-08T15:58:42.427Z,95354.74
2019-02-08T16:01:11.136Z,95352.06
2019-02-08T16:03:39.726Z,95352.32
2019-02-08T16:06:08.221Z,95342.83
2019-02-08T16:08:45.340Z,95339.72
2019-02-08T16:11:14.832Z,95335.55
2019-02-08T16:13:53.016Z,95331.16
2019-02-08T16:16:43.987Z,95320.02
2019-02-08T16:19:21.314Z,95318.24
2019-02-08T16:22:00.930Z,95317.05
2019-02-08T16:24:51.589Z,95316.78
2019-02-08T16:27:21.914Z,95308.88
2019-02-08T16:29:53.654Z,95306.55
2019-02-08T16:32:26.419Z,95307.24
2019-02-08T16:35:00.432Z,95305.84
2019-02-08T16:37:32.606Z,95308.14
2019-02-08T16:40:01.174Z,95318.17
2019-02-08T16:42:34.133Z,95314.50
2019-02-08T16:45:03.698Z,95312.06
2019-02-08T16:47:35.968Z,95308.63
2019-02-08T16:50:06.987Z,95303.63
2019-02-08T16:52:39.279Z,95303.91
2019-02-08T16:55:07.887Z,95304.39
2019-02-08T16:58:04.738Z,95310.13
2019-02-08T17:00:38.913Z,95306.89
2019-02-08T17:03:08.625Z,95304.63
2019-02-08T17:05:37.179Z,95304.63
2019-02-08T17:08:05.691Z,95307.28
2019-02-08T17:10:38.927Z,95310.80
2019-02-08T17:13:07.612Z,95303.39
2019-02-08T17:15:39.059Z,95309.80
2019-02-08T17:18:07.566Z,95310.58
2019-02-08T17:20:59.371Z,95307.86
2019-02-08T17:24:00.426Z,95312.05
2019-02-08T17:26:43.645Z,95309.12
2019-02-08T17:29:24.062Z,95306.85
2019-02-08T17:31:57.630Z,95298.84
2019-02-08T17:34:26.287Z,95293.15
2019-02-08T17:37:01.310Z,95285.16
2019-02-08T17:39:30.601Z,95286.42
2019-02-08T17:42:16.660Z,95280.28
2019-02-08T17:45:16.762Z,95276.34
2019-02-08T17:48:16.763Z,95276.52
2019-02-08T17:51:01.632Z,95271.40
2019-02-08T17:53:39.247Z,95272.24
2019-02-08T17:56:08.235Z,95273.59
2019-02-08T17:58:43.655Z,95270.17
2019-02-08T18:01:12.186Z,95271.34
2019-02-08T18:03:57.834Z,95268.15
2019-02-08T18:06:33.888Z,95268.18
2019-02-08T18:09:02.962Z,95258.30
2019-02-08T18:11:48.520Z,95249.84
2019-02-08T18:14:17.038Z,95245.60
2019-02-08T18:16:53.443Z,95249.44
2019-02-08T18:19:38.951Z,95240.84
2019-02-08T18:22:07.995Z,95236.05
2019-02-08T18:24:51.508Z,95240.45
2019-02-08T18:27:30.935Z,95243.66
2019-02-08T18:29:59.466Z,95238.67
2019-02-08T18:32:54.620Z,95240.93
2019-02-08T18:35:28.849Z,95242.52
2019-02-08T18:37:58.294Z,95237.92
2019-02-08T18:40:48.979Z,95241.12
2019-02-08T18:43:17.536Z,95238.44
2019-02-08T18:45:47.984Z,95231.73
2019-02-08T18:48:17.371Z,95230.77
2019-02-08T18:50:45.913Z,95227.09
2019-02-08T18:53:29.551Z,95229.65
2019-02-08T18:55:58.082Z,95224.81
2019-02-08T18:58:26.602Z,95229.66
2019-02-08T19:01:12.876Z,95231.13
2019-02-08T19:03:51.610Z,95214.57
2019-02-08T19:06:21.039Z,95207.20
2019-02-08T19:08:53.520Z,95206.08
2019-02-08T19:11:22.024Z,95207.59
2019-02-08T19:14:12.270Z,95207.73
2019-02-08T19:16:47.837Z,95200.14
2019-02-08T19:19:16.653Z,95197.95
2019-02-08T19:22:04.037Z,95197.22
2019-02-08T19:24:34.574Z,95198.50
2019-02-08T19:27:07.191Z,95197.20
2019-02-08T19:29:37.653Z,95194.52
2019-02-08T19:32:13.124Z,95195.55
2019-02-08T19:34:42.656Z,95194.87
2019-02-08T19:37:12.410Z,95191.08
2019-02-08T19:39:48.935Z,95187.21
2019-02-08T19:42:17.450Z,95184.22
2019-02-08T19:45:03.576Z,95180.57
2019-02-08T19:47:49.584Z,95177.91
2019-02-08T19:50:20.814Z,95177.23
2019-02-08T19:52:49.994Z,95189.00
2019-02-08T19:55:18.569Z,95184.93
2019-02-08T19:57:54.895Z,95175.87
2019-02-08T20:00:24.082Z,95172.38
2019-02-08T20:02:52.609Z,95180.40
2019-02-08T20:05:22.568Z,95175.53
2019-02-08T20:07:58.852Z,95169.68
2019-02-08T20:10:32.848Z,95172.59
2019-02-08T20:13:12.154Z,95174.41
2019-02-08T20:16:04.751Z,95178.36
2019-02-08T20:18:33.801Z,95179.89
2019-02-08T20:21:11.676Z,95179.62
2019-02-08T20:23:59.017Z,95174.85
2019-02-08T20:26:27.539Z,95177.77
2019-02-08T20:29:11.669Z,95170.27
2019-02-08T20:32:11.594Z,95173.00
2019-02-08T20:34:53.582Z,95169.21
2019-02-08T20:37:22.112Z,95172.55
2019-02-08T20:39:55.336Z,95176.37
2019-02-08T20:42:23.882Z,95173.23
2019-02-08T20:45:09.847Z,95173.09
2019-02-08T20:47:55.446Z,95167.93
2019-02-08T20:50:23.979Z,95173.75
2019-02-08T20:52:53.641Z,95179.00
2019-02-08T20:55:22.189Z,95175.80
2019-02-08T20:58:03.379Z,95179.08
2019-02-08T21:00:43.677Z,95172.98
2019-02-08T21:03:12.851Z,95174.89
2019-02-08T21:05:49.775Z,95178.65
2019-02-08T21:08:18.355Z,95171.25
2019-02-08T21:10:49.280Z,95164.00
2019-02-08T21:13:24.485Z,95159.42
2019-02-08T21:15:53.350Z,95155.21
2019-02-08T21:18:36.528Z,95155.29
2019-02-08T21:21:09.727Z,95163.09
2019-02-08T21:23:39.110Z,95160.72
2019-02-08T21:26:25.958Z,95158.34
2019-02-08T21:28:57.904Z,95154.72
2019-02-08T21:31:34.649Z,95153.87
2019-02-08T21:34:12.592Z,95147.54
2019-02-08T21:36:47.216Z,95145.87
2019-02-08T21:39:39.424Z,95143.83
2019-02-08T21:42:19.068Z,95147.08
2019-02-08T21:44:47.683Z,95150.05
2019-02-08T21:47:16.229Z,95143.48
2019-02-08T21:49:45.464Z,95139.09
2019-02-08T21:52:36.807Z,95145.44
2019-02-08T21:55:07.510Z,95136.30
2019-02-08T21:57:44.023Z,95134.42
2019-02-08T22:00:29.111Z,95123.63
2019-02-08T22:03:02.820Z,95130.78
2019-02-08T22:05:37.655Z,95110.73
2019-02-08T22:08:29.453Z,95117.05
2019-02-08T22:11:06.961Z,95108.74
2019-02-08T22:13:36.554Z,95105.34
2019-02-08T22:16:19.543Z,95107.66
2019-02-08T22:18:48.365Z,95094.91
2019-02-08T22:21:30.650Z,95088.15
2019-02-08T22:24:03.394Z,95086.08
2019-02-08T22:26:36.218Z,95089.62
2019-02-08T22:29:19.710Z,95076.81
2019-02-08T22:31:48.246Z,95079.61
2019-02-08T22:34:30.443Z,95081.75
2019-02-08T22:37:00.974Z,95074.66
2019-02-08T22:39:37.096Z,95068.45
2019-02-08T22:42:19.971Z,95064.50
2019-02-08T22:44:48.678Z,95057.87
2019-02-08T22:47:27.338Z,95062.52
2019-02-08T22:50:03.060Z,95061.91
2019-02-08T22:52:31.584Z,95057.58
2019-02-08T22:55:17.727Z,95064.16
2019-02-08T22:57:50.326Z,95055.77
2019-02-08T23:00:30.644Z,95049.30
2019-02-08T23:03:02.805Z,95046.91
2019-02-08T23:05:31.501Z,95046.50
2019-02-08T23:08:15.609Z,95046.81
2019-02-08T23:10:54.087Z,95044.58
2019-02-08T23:13:22.612Z,95038.73
2019-02-08T23:15:52.061Z,95039.45
2019-02-08T23:18:20.594Z,95035.99
2019-02-08T23:21:05.004Z,95039.16
2019-02-08T23:23:56.991Z,95043.38
2019-02-08T23:26:25.506Z,95044.08
2019-02-08T23:28:57.798Z,95060.55
2019-02-08T23:31:26.321Z,95029.00
2019-02-08T23:34:02.180Z,95030.97
2019-02-08T23:36:30.734Z,95036.27
2019-02-08T23:39:12.954Z,95027.98
2019-02-08T23:41:46.802Z,95022.23
2019-02-08T23:44:15.318Z,95018.52
2019-02-08T23:46:53.356Z,95026.09
2019-02-08T23:49:22.021Z,95030.73
2019-02-08T23:52:12.648Z,95019.77
2019-02-08T23:54:41.143Z,95028.80
2019-02-08T23:57:13.251Z,95027.41
2019-02-08T23:59:46.090Z,95021.56
